createdAt,value
2018-08-28T00:03:26.213Z,19.50
2018-08-28T00:08:40.166Z,19.50
2018-08-28T00:13:43.853Z,19.50
2018-08-28T00:18:47.982Z,19.50
2018-08-28T00:23:51.937Z,19.50
2018-08-28T00:29:02.570Z,19.50
2018-08-28T00:34:06.429Z,19.50
2018-08-28T00:39:10.873Z,19.50
2018-08-28T00:44:14.712Z,19.50
2018-08-28T00:49:18.549Z,19.50
2018-08-28T00:54:22.821Z,19.50
2018-08-28T00:59:43.038Z,19.50
2018-08-28T01:04:47.173Z,19.50
2018-08-28T01:09:51.034Z,19.50
2018-08-28T01:14:54.849Z,19.50
2018-08-28T01:19:58.604Z,19.50
2018-08-28T01:25:02.313Z,19.50
2018-08-28T01:30:06.404Z,19.50
2018-08-28T01:35:10.517Z,19.50
2018-08-28T01:40:14.165Z,19.50
2018-08-28T01:45:18.104Z,19.50
2018-08-28T01:50:22.077Z,19.50
2018-08-28T01:55:25.788Z,19.50
2018-08-28T02:00:29.803Z,19.50
2018-08-28T02:05:34.112Z,19.50
2018-08-28T02:10:37.863Z,19.50
2018-08-28T02:15:42.129Z,19.50
2018-08-28T02:20:47.892Z,19.50
2018-08-28T02:25:51.711Z,19.50
2018-08-28T02:30:55.444Z,19.50
2018-08-28T02:35:59.532Z,19.50
2018-08-28T02:41:03.215Z,19.50
2018-08-28T02:51:36.522Z,19.40
2018-08-28T02:56:40.800Z,19.40
2018-08-28T03:01:44.385Z,19.40
2018-08-28T03:06:48.249Z,19.40
2018-08-28T03:11:52.596Z,19.40
2018-08-28T03:16:56.601Z,19.40
2018-08-28T03:22:00.478Z,19.40
2018-08-28T03:27:04.286Z,19.40
2018-08-28T03:32:08.673Z,19.40
2018-08-28T03:37:12.544Z,19.40
2018-08-28T03:42:16.795Z,19.40
2018-08-28T03:47:21.184Z,19.40
2018-08-28T03:52:25.075Z,19.40
2018-08-28T03:57:28.933Z,19.40
2018-08-28T04:02:35.276Z,19.40
2018-08-28T04:07:45.597Z,19.40
2018-08-28T04:12:50.282Z,19.30
2018-08-28T04:17:55.118Z,19.30
2018-08-28T04:22:58.878Z,19.30
2018-08-28T04:28:02.766Z,19.30
2018-08-28T04:33:06.806Z,19.30
2018-08-28T04:38:10.934Z,19.30
2018-08-28T04:43:14.828Z,19.30
2018-08-28T04:48:18.712Z,19.30
2018-08-28T04:53:22.548Z,19.30
2018-08-28T04:58:30.020Z,19.20
2018-08-28T05:03:33.914Z,19.20
2018-08-28T05:08:37.648Z,19.20
2018-08-28T05:13:41.479Z,19.20
2018-08-28T05:18:45.525Z,19.20
2018-08-28T05:23:49.354Z,19.20
2018-08-28T05:28:53.276Z,19.20
2018-08-28T05:33:56.962Z,19.20
2018-08-28T05:39:00.879Z,19.30
2018-08-28T05:44:04.868Z,19.30
2018-08-28T05:49:18.476Z,19.30
2018-08-28T05:54:22.254Z,19.30
2018-08-28T05:59:45.611Z,19.30
2018-08-28T06:04:49.315Z,19.40
2018-08-28T06:09:53.058Z,19.40
2018-08-28T06:14:56.934Z,19.40
2018-08-28T06:20:00.627Z,19.50
2018-08-28T06:25:04.508Z,19.50
2018-08-28T06:35:36.093Z,19.50
2018-08-28T06:40:39.961Z,19.60
2018-08-28T06:45:43.671Z,19.60
2018-08-28T06:50:47.878Z,19.60
2018-08-28T06:55:52.248Z,19.70
2018-08-28T07:00:56.248Z,19.70
2018-08-28T07:06:00.210Z,19.70
2018-08-28T07:11:04.302Z,19.70
2018-08-28T07:16:08.652Z,19.80
2018-08-28T07:21:12.507Z,19.80
2018-08-28T07:26:16.256Z,19.90
2018-08-28T07:31:20.259Z,20.00
2018-08-28T07:36:23.842Z,20.00
2018-08-28T07:41:27.690Z,20.00
2018-08-28T07:46:31.549Z,20.10
2018-08-28T07:51:35.357Z,20.20
2018-08-28T07:56:39.218Z,20.30
2018-08-28T08:01:43.071Z,20.40
2018-08-28T08:06:46.976Z,20.40
2018-08-28T08:11:50.830Z,20.50
2018-08-28T08:16:54.551Z,20.60
2018-08-28T08:27:31.540Z,20.80
2018-08-28T08:32:35.274Z,20.90
2018-08-28T08:37:39.496Z,20.90
2018-08-28T08:42:43.564Z,21.10
2018-08-28T08:47:47.557Z,21.20
2018-08-28T08:52:51.488Z,21.30
2018-08-28T08:57:55.329Z,21.30
2018-08-28T09:02:59.652Z,21.40
2018-08-28T09:08:03.465Z,21.50
2018-08-28T09:13:07.307Z,21.50
2018-08-28T09:18:11.105Z,21.60
2018-08-28T09:23:14.808Z,21.70
2018-08-28T09:28:18.472Z,21.80
2018-08-28T09:33:22.444Z,21.90
2018-08-28T09:38:28.578Z,22.00
2018-08-28T09:43:32.645Z,22.10
2018-08-28T09:48:36.408Z,22.20
2018-08-28T09:53:40.046Z,22.20
2018-08-28T09:58:43.799Z,22.30
2018-08-28T10:03:47.839Z,22.40
2018-08-28T10:08:55.518Z,22.60
2018-08-28T10:13:59.430Z,22.70
2018-08-28T10:19:21.283Z,22.70
2018-08-28T10:24:25.199Z,22.70
2018-08-28T10:34:57.149Z,22.80
2018-08-28T10:40:00.993Z,23.00
2018-08-28T10:45:04.742Z,23.20
2018-08-28T10:50:08.615Z,23.30
2018-08-28T10:55:12.709Z,23.50
2018-08-28T11:00:16.728Z,23.60
2018-08-28T11:05:20.421Z,23.60
2018-08-28T11:10:24.135Z,23.80
2018-08-28T11:15:27.858Z,23.90
2018-08-28T11:20:31.795Z,24.10
2018-08-28T11:25:35.365Z,24.30
2018-08-28T11:30:39.031Z,24.50
2018-08-28T11:35:42.926Z,24.70
2018-08-28T11:40:46.752Z,25.00
2018-08-28T11:45:50.848Z,25.10
2018-08-28T11:50:54.631Z,25.30
2018-08-28T11:55:58.532Z,25.20
2018-08-28T12:01:02.152Z,25.20
2018-08-28T12:06:06.196Z,25.10
2018-08-28T12:11:10.123Z,25.10
2018-08-28T12:16:13.999Z,25.30
2018-08-28T12:21:17.849Z,25.30
2018-08-28T12:26:21.771Z,25.50
2018-08-28T12:31:25.915Z,25.40
2018-08-28T12:36:30.112Z,25.40
2018-08-28T12:41:33.992Z,25.40
2018-08-28T12:46:54.446Z,25.40
2018-08-28T12:51:58.309Z,25.40
2018-08-28T12:57:02.517Z,25.40
2018-08-28T13:02:06.676Z,25.30
2018-08-28T13:07:26.933Z,25.30
2018-08-28T13:12:30.711Z,25.30
2018-08-28T13:17:34.304Z,25.50
2018-08-28T13:22:38.036Z,25.60
2018-08-28T13:27:41.891Z,25.80
2018-08-28T13:32:46.271Z,26.00
2018-08-28T13:37:50.408Z,26.20
2018-08-28T13:42:54.160Z,26.40
2018-08-28T13:47:58.614Z,26.40
2018-08-28T13:53:02.279Z,26.50
2018-08-28T13:58:05.913Z,26.70
2018-08-28T14:03:09.714Z,26.80
2018-08-28T14:13:41.773Z,27.10
2018-08-28T14:18:45.548Z,27.30
2018-08-28T14:23:49.383Z,27.30
2018-08-28T14:28:53.301Z,27.20
2018-08-28T14:33:57.002Z,27.00
2018-08-28T14:39:00.801Z,26.90
2018-08-28T14:44:04.881Z,27.00
2018-08-28T14:54:36.912Z,27.00
2018-08-28T14:59:40.473Z,27.00
2018-08-28T15:04:44.181Z,27.10
2018-08-28T15:09:48.048Z,27.10
2018-08-28T15:14:52.010Z,27.10
2018-08-28T15:19:55.601Z,27.10
2018-08-28T15:24:59.403Z,27.10
2018-08-28T15:30:03.215Z,27.10
2018-08-28T15:35:07.067Z,27.10
2018-08-28T15:40:10.919Z,27.20
2018-08-28T15:45:14.959Z,27.10
2018-08-28T15:50:18.878Z,27.20
2018-08-28T15:55:22.494Z,27.20
2018-08-28T16:00:26.337Z,27.20
2018-08-28T16:05:30.045Z,27.20
2018-08-28T16:10:34.084Z,27.10
2018-08-28T16:15:38.197Z,27.00
2018-08-28T16:20:42.533Z,26.80
2018-08-28T16:25:46.390Z,26.70
2018-08-28T16:30:50.364Z,26.50
2018-08-28T16:35:54.430Z,26.30
2018-08-28T16:41:14.781Z,26.20
2018-08-28T16:46:18.785Z,26.10
2018-08-28T16:51:22.516Z,25.90
2018-08-28T16:56:26.359Z,25.80
2018-08-28T17:01:30.307Z,25.70
2018-08-28T17:06:34.326Z,25.60
2018-08-28T17:11:38.225Z,25.50
2018-08-28T17:16:42.652Z,25.30
2018-08-28T17:21:46.559Z,25.20
2018-08-28T17:26:50.788Z,25.10
2018-08-28T17:31:54.843Z,24.90
2018-08-28T17:36:59.150Z,24.80
2018-08-28T17:42:02.939Z,24.70
2018-08-28T17:47:06.881Z,24.60
2018-08-28T17:52:10.899Z,24.40
2018-08-28T17:57:14.819Z,24.30
2018-08-28T18:02:18.676Z,24.10
2018-08-28T18:07:22.276Z,23.90
2018-08-28T18:12:26.112Z,23.70
2018-08-28T18:17:29.795Z,23.50
2018-08-28T18:22:33.961Z,23.40
2018-08-28T18:27:37.844Z,23.10
2018-08-28T18:32:41.824Z,23.00
2018-08-28T18:37:46.202Z,22.80
2018-08-28T18:42:50.151Z,22.60
2018-08-28T18:47:59.624Z,22.50
2018-08-28T18:53:03.679Z,22.30
2018-08-28T18:58:07.924Z,22.10
2018-08-28T19:03:11.716Z,22.00
2018-08-28T19:14:06.576Z,21.60
2018-08-28T19:24:38.980Z,21.40
2018-08-28T19:29:42.884Z,21.20
2018-08-28T19:34:47.109Z,21.10
2018-08-28T19:40:09.548Z,21.00
2018-08-28T19:45:13.493Z,20.90
2018-08-28T19:50:17.354Z,20.70
2018-08-28T19:55:21.268Z,20.60
2018-08-28T20:00:25.259Z,20.50
2018-08-28T20:05:29.064Z,20.40
2018-08-28T20:10:32.984Z,20.30
2018-08-28T20:15:37.710Z,20.20
2018-08-28T20:20:41.797Z,20.10
2018-08-28T20:25:45.751Z,20.10
2018-08-28T20:30:49.688Z,19.90
2018-08-28T20:35:53.489Z,19.90
2018-08-28T20:40:57.223Z,19.80
2018-08-28T20:46:01.207Z,19.70
2018-08-28T20:51:05.012Z,19.60
2018-08-28T20:56:08.975Z,19.50
2018-08-28T21:01:12.882Z,19.40
2018-08-28T21:06:16.838Z,19.30
2018-08-28T21:11:20.680Z,19.20
2018-08-28T21:16:24.590Z,19.10
2018-08-28T21:21:28.368Z,19.10
2018-08-28T21:26:32.264Z,19.00
2018-08-28T21:31:36.043Z,18.90
2018-08-28T21:36:52.144Z,18.80
2018-08-28T21:41:55.933Z,18.70
2018-08-28T21:46:59.841Z,18.70
2018-08-28T21:52:03.915Z,18.60
2018-08-28T21:57:08.062Z,18.60
2018-08-28T22:02:11.913Z,18.50
2018-08-28T22:07:21.406Z,18.40
2018-08-28T22:12:25.353Z,18.40
2018-08-28T22:17:29.079Z,18.30
2018-08-28T22:22:33.032Z,18.20
2018-08-28T22:27:36.927Z,18.20
2018-08-28T22:32:41.828Z,18.10
2018-08-28T22:37:45.882Z,18.00
2018-08-28T22:42:50.629Z,17.90
2018-08-28T23:04:30.887Z,17.60
2018-08-28T23:09:44.914Z,17.50
2018-08-28T23:14:48.840Z,17.50
2018-08-28T23:19:52.820Z,17.40
2018-08-28T23:24:56.796Z,17.40
2018-08-28T23:30:00.673Z,17.30
2018-08-28T23:35:04.522Z,17.20
2018-08-28T23:40:08.383Z,17.20
2018-08-28T23:45:12.718Z,17.10
2018-08-28T23:50:16.996Z,17.00
2018-08-28T23:55:20.796Z,17.00
